^^
Station Historical Data
Daily Summary for January 16, 2017 Units:  Metric    English   Both
« Previous Day
Next Day »
Daily Weekly Monthly Yearly Custom
  High: Low: Average:
Temperature: 36.2 °C 17.1 °C 23.3 °C
Dew Point: 11.6 °C 0.9 °C 9.6 °C
Humidity: 67% 11% 48%
Wind Speed: 30.6km/h 0km/h 16.3km/h
Wind Gust: 37km/h - -
Wind- - South
Pressure: 1009 hPa 1004.3 hPa -
Precipitation: 0 mm    
Historical Graphs
 
 
Tabular Data for January 16, 2017
Time Temperature Dew Point Pressure Wind Wind Speed Wind Gust Humidity Rainfall Rate (Hourly) solar Conditions
00:02 21.6 °C 10.4 °C 1007.3 hPa South 19.5 km/h 29 km/h 49% 0 mm 0.0 W/m2
00:11 21.4 °C 10.8 °C 1007.3 hPa South 17.7 km/h 33.8 km/h 51% 0 mm 0.0 W/m2
00:17 21.3 °C 10.8 °C 1007.3 hPa SSW 27.4 km/h 30.6 km/h 51% 0 mm 0.0 W/m2
00:22 21.2 °C 11 °C 1007.3 hPa South 22.7 km/h 29 km/h 52% 0 mm 0.0 W/m2
00:27 21.1 °C 10.9 °C 1007.3 hPa SSW 19.5 km/h 29 km/h 52% 0 mm 0.0 W/m2
00:32 21.1 °C 10.9 °C 1007.3 hPa SSW 22.7 km/h 30.6 km/h 52% 0 mm 0.0 W/m2
00:37 20.9 °C 11 °C 1007.3 hPa South 25.9 km/h 29 km/h 53% 0 mm 0.0 W/m2
00:42 20.9 °C 11 °C 1007.3 hPa SSW 25.9 km/h 30.6 km/h 53% 0 mm 0.0 W/m2
00:47 20.8 °C 10.9 °C 1007 hPa SSW 19.5 km/h 29 km/h 53% 0 mm 0.0 W/m2
00:52 20.7 °C 10.8 °C 1007 hPa SSW 17.7 km/h 27.4 km/h 53% 0 mm 0.0 W/m2
00:57 20.6 °C 10.7 °C 1007.3 hPa SSW 20.9 km/h 24.1 km/h 53% 0 mm 0.0 W/m2
01:02 20.6 °C 10.7 °C 1007.3 hPa SSW 17.7 km/h 25.7 km/h 53% 0 mm 0.0 W/m2
01:12 20.5 °C 10.6 °C 1007.3 hPa SSW 16.3 km/h 25.7 km/h 53% 0 mm 0.0 W/m2
01:17 20.4 °C 10.5 °C 1007.3 hPa SSW 24.1 km/h 27.4 km/h 53% 0 mm 0.0 W/m2
01:22 20.4 °C 10.8 °C 1007.3 hPa SSW 17.7 km/h 29 km/h 54% 0 mm 0.0 W/m2
01:32 20.3 °C 10.7 °C 1007.3 hPa SSW 28.8 km/h 35.4 km/h 54% 0 mm 0.0 W/m2
01:42 20.1 °C 11 °C 1007.3 hPa South 25.9 km/h 37 km/h 56% 0 mm 0.0 W/m2
01:47 20.1 °C 11.3 °C 1007.3 hPa SSW 27.4 km/h 37 km/h 57% 0 mm 0.0 W/m2
01:57 19.9 °C 11.4 °C 1007.3 hPa SSW 20.9 km/h 29 km/h 58% 0 mm 0.0 W/m2
02:02 19.8 °C 11.3 °C 1007.3 hPa South 25.9 km/h 29 km/h 58% 0 mm 0.0 W/m2
02:07 19.7 °C 11.2 °C 1007.3 hPa South 24.1 km/h 29 km/h 58% 0 mm 0.0 W/m2
02:12 19.7 °C 11.2 °C 1007.3 hPa South 19.5 km/h 27.4 km/h 58% 0 mm 0.0 W/m2
02:22 19.6 °C 11.1 °C 1007.3 hPa SSW 22.7 km/h 24.1 km/h 58% 0 mm 0.0 W/m2
02:27 19.5 °C 11.3 °C 1007.3 hPa SSW 24.1 km/h 25.7 km/h 59% 0 mm 0.0 W/m2
02:32 19.4 °C 11.2 °C 1007.3 hPa SSW 19.5 km/h 24.1 km/h 59% 0 mm 0.0 W/m2
02:37 19.3 °C 11.1 °C 1007.3 hPa SSW 19.5 km/h 22.5 km/h 59% 0 mm 0.0 W/m2
02:42 19.2 °C 11 °C 1007.3 hPa SSW 20.9 km/h 27.4 km/h 59% 0 mm 0.0 W/m2
02:47 19.1 °C 10.9 °C 1007.3 hPa SSW 24.1 km/h 25.7 km/h 59% 0 mm 0.0 W/m2
02:53 19 °C 10.8 °C 1007.3 hPa SSW 20.9 km/h 25.7 km/h 59% 0 mm 0.0 W/m2
02:58 18.9 °C 10.7 °C 1007.3 hPa SSW 14.3 km/h 22.5 km/h 59% 0 mm 0.0 W/m2
03:03 18.9 °C 11 °C 1007.3 hPa SSW 24.1 km/h 27.4 km/h 60% 0 mm 0.0 W/m2
03:08 18.8 °C 10.9 °C 1007.3 hPa South 14.3 km/h 24.1 km/h 60% 0 mm 0.0 W/m2
03:13 18.7 °C 10.8 °C 1007.3 hPa SSW 24.1 km/h 25.7 km/h 60% 0 mm 0.0 W/m2
03:23 18.6 °C 10.9 °C 1007.3 hPa SSW 16.3 km/h 27.4 km/h 61% 0 mm 0.0 W/m2
03:28 18.5 °C 10.8 °C 1007 hPa SSW 17.7 km/h 24.1 km/h 61% 0 mm 0.0 W/m2
03:33 18.4 °C 10.7 °C 1007 hPa SSW 17.7 km/h 20.9 km/h 61% 0 mm 0.0 W/m2
03:43 18.3 °C 10.9 °C 1007 hPa SSW 19.5 km/h 24.1 km/h 62% 0 mm 0.0 W/m2
03:53 18.2 °C 10.8 °C 1007 hPa SSW 13 km/h 20.9 km/h 62% 0 mm 0.0 W/m2
03:58 18.2 °C 10.8 °C 1007.3 hPa SSW 11.1 km/h 14.5 km/h 62% 0 mm 0.0 W/m2
04:08 18 °C 10.9 °C 1007.3 hPa SSW 14.3 km/h 20.9 km/h 63% 0 mm 0.0 W/m2
04:13 18 °C 10.9 °C 1007.3 hPa SSW 19.5 km/h 22.5 km/h 63% 0 mm 0.0 W/m2
04:18 18 °C 10.9 °C 1007.3 hPa SSW 16.3 km/h 24.1 km/h 63% 0 mm 0.0 W/m2
04:23 18 °C 10.6 °C 1007 hPa SSW 25.9 km/h 25.9 km/h 62% 0 mm 0.0 W/m2
04:28 18 °C 10.6 °C 1007.3 hPa SSW 17.7 km/h 24.1 km/h 62% 0 mm 0.0 W/m2
04:33 17.9 °C 10.5 °C 1007.3 hPa SSW 22.7 km/h 24.1 km/h 62% 0 mm 0.0 W/m2
04:38 17.9 °C 10.5 °C 1007.3 hPa SSW 17.7 km/h 24.1 km/h 62% 0 mm 0.0 W/m2
04:43 17.8 °C 10.7 °C 1007.3 hPa SSW 16.3 km/h 24.1 km/h 63% 0 mm 0.0 W/m2
04:48 17.8 °C 10.7 °C 1007.3 hPa SSW 17.7 km/h 24.1 km/h 63% 0 mm 0.0 W/m2
04:53 17.8 °C 10.7 °C 1007.7 hPa SSW 16.3 km/h 20.9 km/h 63% 0 mm 0.0 W/m2
04:58 17.8 °C 10.7 °C 1007.7 hPa SSW 19.5 km/h 22.5 km/h 63% 0 mm 0.0 W/m2
05:08 17.8 °C 10.7 °C 1007.7 hPa SSW 14.3 km/h 19.3 km/h 63% 0 mm 0.0 W/m2
05:13 17.7 °C 10.6 °C 1007.7 hPa SSW 11.1 km/h 17.7 km/h 63% 0 mm 0.0 W/m2
05:18 17.7 °C 10.8 °C 1007.7 hPa SSW 13 km/h 14.5 km/h 64% 0 mm 0.0 W/m2
05:23 17.6 °C 10.9 °C 1008 hPa SSW 13 km/h 16.1 km/h 65% 0 mm 0.0 W/m2
05:34 17.5 °C 10.8 °C 1008 hPa SSW 9.7 km/h 11.3 km/h 65% 0 mm 0.0 W/m2
05:44 17.3 °C 10.9 °C 1008.4 hPa SSW 7.9 km/h 9.7 km/h 66% 0 mm 0.0 W/m2
05:54 17.2 °C 11 °C 1008.4 hPa SSW 9.7 km/h 12.9 km/h 67% 0 mm 0.0 W/m2
05:59 17.2 °C 11 °C 1008.4 hPa SSW 9.7 km/h 11.3 km/h 67% 0 mm 0.0 W/m2
06:04 17.1 °C 10.9 °C 1008.4 hPa SSW 11.1 km/h 11.3 km/h 67% 0 mm 0.0 W/m2
06:09 17.2 °C 11 °C 1008.4 hPa SW 13 km/h 13 km/h 67% 0 mm 5.0 W/m2
06:14 17.2 °C 11 °C 1008.4 hPa SW 11.1 km/h 12.9 km/h 67% 0 mm 7.0 W/m2
06:19 17.2 °C 11 °C 1008.4 hPa SW 11.1 km/h 12.9 km/h 67% 0 mm 11.0 W/m2
06:24 17.2 °C 11 °C 1008.4 hPa SW 6.4 km/h 9.7 km/h 67% 0 mm 14.0 W/m2
06:29 17.3 °C 11.1 °C 1008.4 hPa SW 11.1 km/h 14.5 km/h 67% 0 mm 16.0 W/m2
06:35 17.4 °C 11.2 °C 1008.7 hPa SW 11.1 km/h 11.3 km/h 67% 0 mm 25.0 W/m2
06:40 17.5 °C 11.1 °C 1008.7 hPa SW 9.7 km/h 11.3 km/h 66% 0 mm 35.0 W/m2
06:49 17.7 °C 11.3 °C 1008.7 hPa SW 6.4 km/h 11.3 km/h 66% 0 mm 63.0 W/m2
06:54 17.9 °C 11.5 °C 1008.7 hPa SW 13 km/h 14.5 km/h 66% 0 mm 81.0 W/m2
07:00 18.1 °C 11.6 °C 1008.7 hPa SSW 9.7 km/h 14.5 km/h 66% 0 mm 98.0 W/m2
07:06 18.2 °C 11.5 °C 1008.7 hPa SSW 16.3 km/h 17.7 km/h 65% 0 mm 120.0 W/m2
07:15 18.7 °C 11.3 °C 1009 hPa SSW 16.3 km/h 17.7 km/h 62% 0 mm 163.0 W/m2
07:26 18.9 °C 11.5 °C 1009 hPa SSW 13 km/h 19.3 km/h 62% 0 mm 209.0 W/m2
07:35 18.9 °C 11.5 °C 1008.7 hPa South 16.3 km/h 17.7 km/h 62% 0 mm 230.0 W/m2
07:46 19.2 °C 11.5 °C 1008.7 hPa South 16.3 km/h 17.7 km/h 61% 0 mm 264.0 W/m2
08:00 19.7 °C 11.5 °C 1008.7 hPa South 14.3 km/h 17.7 km/h 59% 0 mm 318.0 W/m2
08:11 20.1 °C 11.6 °C 1009 hPa SSW 16.3 km/h 19.3 km/h 58% 0 mm 357.0 W/m2
08:26 20.7 °C 11.3 °C 1009 hPa SSW 13 km/h 19.3 km/h 55% 0 mm 401.0 W/m2
09:11 23.1 °C 11.2 °C 1009 hPa South 11.1 km/h 14.5 km/h 47% 0 mm 555.0 W/m2
09:25 24.2 °C 11.2 °C 1008.7 hPa SSW 13 km/h 19.3 km/h 44% 0 mm 605.0 W/m2
10:06 28.5 °C 11.1 °C 1008.4 hPa ESE 14.3 km/h 20.9 km/h 34% 0 mm 722.0 W/m2
10:14 28.9 °C 11 °C 1008.4 hPa ESE 13 km/h 25.7 km/h 33% 0 mm 749.0 W/m2
10:22 29.1 °C 11.2 °C 1008.4 hPa ESE 11.1 km/h 14.5 km/h 33% 0 mm 779.0 W/m2
10:32 29.5 °C 11.1 °C 1008 hPa ESE 7.9 km/h 17.7 km/h 32% 0 mm 803.0 W/m2
10:42 29.9 °C 10.4 °C 1008 hPa ESE 14.3 km/h 27.4 km/h 30% 0 mm 831.0 W/m2
10:47 30.2 °C 10.7 °C 1007.7 hPa East 7.9 km/h 27.4 km/h 30% 0 mm 846.0 W/m2
10:58 30.6 °C 10.5 °C 1007.7 hPa SE 17.7 km/h 30.6 km/h 29% 0 mm 854.0 W/m2
11:07 31.4 °C 10.2 °C 1007.3 hPa East 27.4 km/h 35.4 km/h 27% 0 mm 888.0 W/m2
11:12 31.3 °C 10.1 °C 1007.3 hPa East 25.9 km/h 33.8 km/h 27% 0 mm 896.0 W/m2
11:17 31.8 °C 10.5 °C 1007.3 hPa ESE 30.6 km/h 32.2 km/h 27% 0 mm 909.0 W/m2
11:27 31.8 °C 9.9 °C 1007.3 hPa East 22.7 km/h 30.6 km/h 26% 0 mm 923.0 W/m2
11:32 32.1 °C 9.6 °C 1007.3 hPa East 9.7 km/h 33.8 km/h 25% 0 mm 933.0 W/m2
11:42 32.7 °C 8.9 °C 1007.3 hPa East 9.7 km/h 25.7 km/h 23% 0 mm 946.0 W/m2
11:47 32.9 °C 9 °C 1007.3 hPa ESE 25.9 km/h 27.4 km/h 23% 0 mm 951.0 W/m2
11:57 33.2 °C 9.3 °C 1007.3 hPa East 4.7 km/h 20.9 km/h 23% 0 mm 954.0 W/m2
12:02 33.2 °C 7.2 °C 1007.3 hPa ESE 16.3 km/h 29 km/h 20% 0 mm 969.0 W/m2
12:07 33.1 °C 6.4 °C 1007.3 hPa SE 7.9 km/h 14.5 km/h 19% 0 mm 979.0 W/m2
12:17 33.2 °C 6.5 °C 1007.3 hPa East 9.7 km/h 25.7 km/h 19% 0 mm 977.0 W/m2
12:24 33.5 °C 7.5 °C 1007.3 hPa ESE 20.9 km/h 27.4 km/h 20% 0 mm 984.0 W/m2
12:29 33.7 °C 6.1 °C 1007 hPa SE 13 km/h 24.1 km/h 18% 0 mm 990.0 W/m2
12:40 33.3 °C 6.5 °C 1007 hPa Calm     19% 0 mm 993.0 W/m2
12:54 33.4 °C 6.6 °C 1007 hPa ESE 6.4 km/h 8 km/h 19% 0 mm 1000.0 W/m2
13:06 33.6 °C 6 °C 1007 hPa SE 7.9 km/h 9.7 km/h 18% 0 mm 997.0 W/m2
13:18 33.9 °C 5.4 °C 1006.7 hPa ESE 9.7 km/h 20.9 km/h 17% 0 mm 997.0 W/m2
13:53 34.8 °C 4.3 °C 1006.3 hPa SE 19.5 km/h 22.5 km/h 15% 0 mm 983.0 W/m2
14:18 35.1 °C 4.6 °C 1006 hPa SE 13 km/h 20.9 km/h 15% 0 mm 954.0 W/m2
14:38 35.2 °C 4.7 °C 1005.6 hPa Calm   16.1 km/h 15% 0 mm 926.0 W/m2
15:06 35.7 °C 4.1 °C 1005.6 hPa SE 11.1 km/h 19.3 km/h 14% 0 mm 872.0 W/m2
15:29 36.1 °C 3.3 °C 1005.3 hPa SE 20.9 km/h 27.4 km/h 13% 0 mm 816.0 W/m2
15:34 35.9 °C 2.1 °C 1005.3 hPa SE 24.1 km/h 25.7 km/h 12% 0 mm 800.0 W/m2
16:14 35.8 °C 2 °C 1005 hPa SSE 17.7 km/h 22.5 km/h 12% 0 mm 705.0 W/m2
16:45 36.2 °C 1.1 °C 1004.6 hPa South 6.4 km/h 6.4 km/h 11% 0 mm 610.0 W/m2
17:14 36.1 °C 1 °C 1004.3 hPa SSW 19.5 km/h 19.5 km/h 11% 0 mm 508.0 W/m2
19:03 34.4 °C 0.9 °C 1005 hPa SSE 19.5 km/h 27.4 km/h 12% 0 mm 91.0 W/m2
23:37 26 °C 3.9 °C 1007 hPa South 7.9 km/h 11.3 km/h 24% 0 mm 0.0 W/m2
23:47 25.9 °C 3.8 °C 1007 hPa SSW 9.7 km/h 12.9 km/h 24% 0 mm 0.0 W/m2
23:58 25.7 °C 3.6 °C 1007 hPa SSW 13 km/h 13 km/h 24% 0 mm 0.0 W/m2
Canyon Roadhouse, Fishriver Canyon, Namibia
Compliments of Weather Underground - 2.25 mb